sensor_id;sensor_type;location;lat;lon;timestamp;pressure;altitude;pressure_sealevel;temperature;humidity
35519;BME280;21627;48.216;16.482;2024-03-23T00:51:58;99264.91;;;10.15;100.00
35519;BME280;21627;48.216;16.482;2024-03-23T00:54:25;99254.63;;;10.09;100.00
35519;BME280;21627;48.216;16.482;2024-03-23T00:56:51;99254.63;;;10.12;100.00
35519;BME280;21627;48.216;16.482;2024-03-23T00:59:17;99251.16;;;10.13;100.00
35519;BME280;21627;48.216;16.482;2024-03-23T01:01:43;99261.50;;;10.10;100.00
35519;BME280;21627;48.216;16.482;2024-03-23T01:04:09;99246.88;;;10.09;100.00
35519;BME280;21627;48.216;16.482;2024-03-23T01:06:35;99254.63;;;10.09;100.00
35519;BME280;21627;48.216;16.482;2024-03-23T01:09:02;99244.34;;;10.06;100.00
35519;BME280;21627;48.216;16.482;2024-03-23T01:11:28;99252.06;;;10.04;100.00
35519;BME280;21627;48.216;16.482;2024-03-23T01:13:54;99248.63;;;10.02;100.00
35519;BME280;21627;48.216;16.482;2024-03-23T01:16:21;99247.78;;;10.00;100.00
35519;BME280;21627;48.216;16.482;2024-03-23T01:18:48;99248.66;;;9.97;100.00
35519;BME280;21627;48.216;16.482;2024-03-23T01:21:14;99250.41;;;9.94;100.00
35519;BME280;21627;48.216;16.482;2024-03-23T01:23:40;99251.25;;;9.99;100.00
35519;BME280;21627;48.216;16.482;2024-03-23T01:26:06;99245.22;;;9.97;100.00
35519;BME280;21627;48.216;16.482;2024-03-23T01:28:32;99253.81;;;9.97;100.00
35519;BME280;21627;48.216;16.482;2024-03-23T01:30:58;99241.81;;;9.93;100.00
35519;BME280;21627;48.216;16.482;2024-03-23T01:33:24;99239.22;;;9.96;100.00
35519;BME280;21627;48.216;16.482;2024-03-23T01:35:50;99243.50;;;9.97;100.00
35519;BME280;21627;48.216;16.482;2024-03-23T01:38:16;99241.78;;;9.96;100.00
35519;BME280;21627;48.216;16.482;2024-03-23T01:40:42;99241.75;;;10.00;100.00
35519;BME280;21627;48.216;16.482;2024-03-23T01:43:09;99231.50;;;9.93;100.00
35519;BME280;21627;48.216;16.482;2024-03-23T01:45:35;99225.47;;;9.93;100.00
35519;BME280;21627;48.216;16.482;2024-03-23T01:48:02;99216.84;;;9.92;100.00
35519;BME280;21627;48.216;16.482;2024-03-23T01:50:29;99221.13;;;9.95;100.00
35519;BME280;21627;48.216;16.482;2024-03-23T01:52:56;99212.59;;;9.88;100.00
35519;BME280;21627;48.216;16.482;2024-03-23T01:55:23;99214.28;;;9.89;100.00
35519;BME280;21627;48.216;16.482;2024-03-23T01:57:50;99216.03;;;9.86;100.00
35519;BME280;21627;48.216;16.482;2024-03-23T02:00:16;99214.31;;;9.85;100.00
35519;BME280;21627;48.216;16.482;2024-03-23T02:02:44;99208.31;;;9.83;100.00
35519;BME280;21627;48.216;16.482;2024-03-23T02:05:11;99209.16;;;9.83;100.00
35519;BME280;21627;48.216;16.482;2024-03-23T02:07:40;99198.84;;;9.80;100.00
35519;BME280;21627;48.216;16.482;2024-03-23T02:10:07;99198.84;;;9.80;100.00
35519;BME280;21627;48.216;16.482;2024-03-23T02:12:34;99203.13;;;9.86;100.00
35519;BME280;21627;48.216;16.482;2024-03-23T02:15:00;99184.19;;;9.85;100.00
35519;BME280;21627;48.216;16.482;2024-03-23T02:17:28;99190.25;;;9.81;100.00
35519;BME280;21627;48.216;16.482;2024-03-23T02:19:55;99187.66;;;9.80;100.00
35519;BME280;21627;48.216;16.482;2024-03-23T02:22:21;99186.81;;;9.79;100.00
35519;BME280;21627;48.216;16.482;2024-03-23T02:24:47;99178.19;;;9.80;100.00
35519;BME280;21627;48.216;16.482;2024-03-23T02:27:13;99169.59;;;9.77;100.00
35519;BME280;21627;48.216;16.482;2024-03-23T02:29:39;99163.63;;;9.73;100.00
35519;BME280;21627;48.216;16.482;2024-03-23T02:32:05;99163.59;;;9.74;100.00
35519;BME280;21627;48.216;16.482;2024-03-23T02:34:32;99161.00;;;9.76;100.00
35519;BME280;21627;48.216;16.482;2024-03-23T02:36:58;99152.41;;;9.75;100.00
35519;BME280;21627;48.216;16.482;2024-03-23T02:39:24;99147.25;;;9.74;100.00
35519;BME280;21627;48.216;16.482;2024-03-23T02:41:50;99147.25;;;9.72;100.00
35519;BME280;21627;48.216;16.482;2024-03-23T02:44:16;99136.09;;;9.67;100.00
35519;BME280;21627;48.216;16.482;2024-03-23T02:46:42;99142.97;;;9.70;100.00
35519;BME280;21627;48.216;16.482;2024-03-23T02:49:08;99132.66;;;9.67;100.00
35519;BME280;21627;48.216;16.482;2024-03-23T02:51:34;99126.66;;;9.68;100.00
35519;BME280;21627;48.216;16.482;2024-03-23T02:54:00;99128.34;;;9.69;100.00
35519;BME280;21627;48.216;16.482;2024-03-23T02:56:27;99117.16;;;9.71;100.00
35519;BME280;21627;48.216;16.482;2024-03-23T02:58:53;99120.63;;;9.69;100.00
35519;BME280;21627;48.216;16.482;2024-03-23T03:01:19;99119.75;;;9.73;100.00
35519;BME280;21627;48.216;16.482;2024-03-23T03:03:45;99118.03;;;9.69;100.00
35519;BME280;21627;48.216;16.482;2024-03-23T03:06:11;99118.06;;;9.66;100.00
35519;BME280;21627;48.216;16.482;2024-03-23T03:08:37;99112.91;;;9.61;100.00
35519;BME280;21627;48.216;16.482;2024-03-23T03:11:04;99115.47;;;9.64;100.00
35519;BME280;21627;48.216;16.482;2024-03-23T03:13:30;99117.19;;;9.68;100.00
35519;BME280;21627;48.216;16.482;2024-03-23T03:15:56;99124.13;;;9.59;100.00
35519;BME280;21627;48.216;16.482;2024-03-23T03:18:22;99116.34;;;9.63;100.00
35519;BME280;21627;48.216;16.482;2024-03-23T03:20:48;99122.38;;;9.65;100.00
35519;BME280;21627;48.216;16.482;2024-03-23T03:23:15;99121.53;;;9.60;100.00
35519;BME280;21627;48.216;16.482;2024-03-23T03:25:41;99118.06;;;9.60;100.00
35519;BME280;21627;48.216;16.482;2024-03-23T03:28:07;99117.28;;;9.51;100.00
35519;BME280;21627;48.216;16.482;2024-03-23T03:30:33;99112.13;;;9.53;100.00
35519;BME280;21627;48.216;16.482;2024-03-23T03:32:59;99112.97;;;9.52;100.00
35519;BME280;21627;48.216;16.482;2024-03-23T03:35:25;99113.00;;;9.50;100.00
35519;BME280;21627;48.216;16.482;2024-03-23T03:37:51;99113.00;;;9.49;100.00
35519;BME280;21627;48.216;16.482;2024-03-23T03:40:18;99114.69;;;9.51;100.00
35519;BME280;21627;48.216;16.482;2024-03-23T03:42:44;99098.34;;;9.49;100.00
35519;BME280;21627;48.216;16.482;2024-03-23T03:45:10;99105.25;;;9.49;100.00
35519;BME280;21627;48.216;16.482;2024-03-23T03:47:36;99098.38;;;9.51;100.00
35519;BME280;21627;48.216;16.482;2024-03-23T03:50:02;99096.66;;;9.48;100.00
35519;BME280;21627;48.216;16.482;2024-03-23T03:52:29;99100.06;;;9.52;100.00
35519;BME280;21627;48.216;16.482;2024-03-23T03:55:02;99097.50;;;9.49;100.00
35519;BME280;21627;48.216;16.482;2024-03-23T03:57:29;99093.19;;;9.49;100.00
35519;BME280;21627;48.216;16.482;2024-03-23T03:59:55;99087.22;;;9.46;100.00
35519;BME280;21627;48.216;16.482;2024-03-23T04:02:21;99089.78;;;9.50;100.00
35519;BME280;21627;48.216;16.482;2024-03-23T04:04:47;99088.03;;;9.51;100.00
35519;BME280;21627;48.216;16.482;2024-03-23T04:07:16;99091.53;;;9.41;100.00
35519;BME280;21627;48.216;16.482;2024-03-23T04:09:44;99092.41;;;9.41;100.00
35519;BME280;21627;48.216;16.482;2024-03-23T04:12:10;99092.44;;;9.35;100.00
35519;BME280;21627;48.216;16.482;2024-03-23T04:14:36;99090.72;;;9.36;100.00
35519;BME280;21627;48.216;16.482;2024-03-23T04:17:02;99091.59;;;9.33;100.00
35519;BME280;21627;48.216;16.482;2024-03-23T04:19:29;99085.56;;;9.34;100.00
35519;BME280;21627;48.216;16.482;2024-03-23T04:21:55;99079.56;;;9.30;100.00
35519;BME280;21627;48.216;16.482;2024-03-23T04:24:21;99077.84;;;9.26;100.00
35519;BME280;21627;48.216;16.482;2024-03-23T04:26:48;99071.00;;;9.19;100.00
35519;BME280;21627;48.216;16.482;2024-03-23T04:29:14;99077.88;;;9.28;100.00
35519;BME280;21627;48.216;16.482;2024-03-23T04:31:40;99074.44;;;9.27;100.00
35519;BME280;21627;48.216;16.482;2024-03-23T04:34:06;99061.56;;;9.18;100.00
35519;BME280;21627;48.216;16.482;2024-03-23T04:36:32;99070.16;;;9.20;100.00
35519;BME280;21627;48.216;16.482;2024-03-23T04:39:00;99071.03;;;9.18;100.00
35519;BME280;21627;48.216;16.482;2024-03-23T04:41:26;99074.44;;;9.24;100.00
35519;BME280;21627;48.216;16.482;2024-03-23T04:43:52;99057.28;;;9.19;100.00
35519;BME280;21627;48.216;16.482;2024-03-23T04:46:18;99069.28;;;9.23;100.00
35519;BME280;21627;48.216;16.482;2024-03-23T04:48:46;99069.28;;;9.23;100.00
35519;BME280;21627;48.216;16.482;2024-03-23T04:51:21;99065.00;;;9.19;100.00
35519;BME280;21627;48.216;16.482;2024-03-23T04:53:47;99056.41;;;9.18;100.00
35519;BME280;21627;48.216;16.482;2024-03-23T04:56:17;99054.72;;;9.16;100.00
35519;BME280;21627;48.216;16.482;2024-03-23T04:58:43;99055.56;;;9.18;100.00
35519;BME280;21627;48.216;16.482;2024-03-23T05:01:12;99050.41;;;9.18;100.00
35519;BME280;21627;48.216;16.482;2024-03-23T05:03:38;99040.94;;;9.18;100.00
35519;BME280;21627;48.216;16.482;2024-03-23T05:06:05;99049.50;;;9.28;100.00
35519;BME280;21627;48.216;16.482;2024-03-23T05:08:31;99042.63;;;9.25;100.00
35519;BME280;21627;48.216;16.482;2024-03-23T05:10:57;99029.75;;;9.22;100.00
35519;BME280;21627;48.216;16.482;2024-03-23T05:13:24;99030.56;;;9.24;100.00
35519;BME280;21627;48.216;16.482;2024-03-23T05:15:56;99023.72;;;9.23;100.00
35519;BME280;21627;48.216;16.482;2024-03-23T05:18:22;99026.31;;;9.25;100.00
35519;BME280;21627;48.216;16.482;2024-03-23T05:20:48;99028.81;;;9.29;100.00
35519;BME280;21627;48.216;16.482;2024-03-23T05:23:14;99015.09;;;9.27;100.00
35519;BME280;21627;48.216;16.482;2024-03-23T05:25:41;99022.78;;;9.34;100.00
35519;BME280;21627;48.216;16.482;2024-03-23T05:28:07;99024.50;;;9.36;100.00
35519;BME280;21627;48.216;16.482;2024-03-23T05:30:33;99020.22;;;9.32;100.00
35519;BME280;21627;48.216;16.482;2024-03-23T05:32:59;99025.38;;;9.34;100.00
35519;BME280;21627;48.216;16.482;2024-03-23T05:35:25;99033.09;;;9.35;100.00
35519;BME280;21627;48.216;16.482;2024-03-23T05:37:51;99031.34;;;9.40;100.00
35519;BME280;21627;48.216;16.482;2024-03-23T05:40:18;99016.72;;;9.39;100.00
35519;BME280;21627;48.216;16.482;2024-03-23T05:42:44;99012.41;;;9.43;100.00
35519;BME280;21627;48.216;16.482;2024-03-23T05:45:10;99016.69;;;9.44;100.00
35519;BME280;21627;48.216;16.482;2024-03-23T05:47:37;99012.31;;;9.53;100.00
35519;BME280;21627;48.216;16.482;2024-03-23T05:50:04;99013.16;;;9.60;100.00
35519;BME280;21627;48.216;16.482;2024-03-23T05:52:30;99018.31;;;9.59;100.00
35519;BME280;21627;48.216;16.482;2024-03-23T05:54:56;99020.00;;;9.63;100.00
35519;BME280;21627;48.216;16.482;2024-03-23T05:57:24;99006.25;;;9.61;100.00
35519;BME280;21627;48.216;16.482;2024-03-23T05:59:50;99015.75;;;9.54;100.00
35519;BME280;21627;48.216;16.482;2024-03-23T06:02:17;99014.03;;;9.54;100.00
35519;BME280;21627;48.216;16.482;2024-03-23T06:04:45;99006.28;;;9.54;100.00
35519;BME280;21627;48.216;16.482;2024-03-23T06:07:12;99010.50;;;9.68;100.00
35519;BME280;21627;48.216;16.482;2024-03-23T06:09:41;99013.03;;;9.69;100.00
35519;BME280;21627;48.216;16.482;2024-03-23T06:12:07;99000.06;;;9.77;100.00
35519;BME280;21627;48.216;16.482;2024-03-23T06:14:34;99018.03;;;9.89;100.00
35519;BME280;21627;48.216;16.482;2024-03-23T06:17:01;99014.50;;;10.00;100.00
35519;BME280;21627;48.216;16.482;2024-03-23T06:19:28;99004.09;;;10.07;100.00
35519;BME280;21627;48.216;16.482;2024-03-23T06:21:54;99003.13;;;10.19;100.00
35519;BME280;21627;48.216;16.482;2024-03-23T06:24:23;98998.72;;;10.27;100.00
35519;BME280;21627;48.216;16.482;2024-03-23T06:26:50;98998.63;;;10.39;100.00
35519;BME280;21627;48.216;16.482;2024-03-23T06:29:16;98999.44;;;10.43;100.00
35519;BME280;21627;48.216;16.482;2024-03-23T06:31:42;98995.03;;;10.51;100.00
35519;BME280;21627;48.216;16.482;2024-03-23T06:34:08;98987.25;;;10.53;100.00
35519;BME280;21627;48.216;16.482;2024-03-23T06:36:34;98992.38;;;10.57;100.00
35519;BME280;21627;48.216;16.482;2024-03-23T06:39:02;98977.72;;;10.58;100.00
35519;BME280;21627;48.216;16.482;2024-03-23T06:41:28;98982.78;;;10.69;100.00
35519;BME280;21627;48.216;16.482;2024-03-23T06:43:54;98975.13;;;10.59;100.00
35519;BME280;21627;48.216;16.482;2024-03-23T06:46:20;98982.78;;;10.67;100.00
35519;BME280;21627;48.216;16.482;2024-03-23T06:48:47;98985.16;;;10.82;100.00
35519;BME280;21627;48.216;16.482;2024-03-23T06:51:13;98978.28;;;10.80;100.00
35519;BME280;21627;48.216;16.482;2024-03-23T06:53:39;98986.19;;;10.69;100.00
35519;BME280;21627;48.216;16.482;2024-03-23T06:56:05;98974.13;;;10.68;100.00
35519;BME280;21627;48.216;16.482;2024-03-23T06:58:31;98976.81;;;10.64;100.00
35519;BME280;21627;48.216;16.482;2024-03-23T07:00:58;98984.47;;;10.70;100.00
35519;BME280;21627;48.216;16.482;2024-03-23T07:03:24;98977.56;;;10.70;100.00
35519;BME280;21627;48.216;16.482;2024-03-23T07:05:51;98977.50;;;10.76;100.00
35519;BME280;21627;48.216;16.482;2024-03-23T07:08:18;98984.31;;;10.82;100.00
35519;BME280;21627;48.216;16.482;2024-03-23T07:10:48;98970.50;;;10.83;100.00
35519;BME280;21627;48.216;16.482;2024-03-23T07:13:14;98977.38;;;10.84;100.00
35519;BME280;21627;48.216;16.482;2024-03-23T07:15:40;98977.34;;;10.89;100.00
35519;BME280;21627;48.216;16.482;2024-03-23T07:18:06;98974.69;;;10.92;100.00
35519;BME280;21627;48.216;16.482;2024-03-23T07:20:32;98978.06;;;10.97;100.00
35519;BME280;21627;48.216;16.482;2024-03-23T07:22:58;98977.97;;;11.03;100.00
35519;BME280;21627;48.216;16.482;2024-03-23T07:25:25;98976.22;;;11.05;100.00
35519;BME280;21627;48.216;16.482;2024-03-23T07:27:55;98979.47;;;11.19;100.00
35519;BME280;21627;48.216;16.482;2024-03-23T07:30:22;98977.59;;;11.29;100.00
35519;BME280;21627;48.216;16.482;2024-03-23T07:32:48;98984.50;;;11.29;100.00
35519;BME280;21627;48.216;16.482;2024-03-23T07:35:14;98973.41;;;11.22;100.00
35519;BME280;21627;48.216;16.482;2024-03-23T07:37:41;98965.53;;;11.28;100.00
35519;BME280;21627;48.216;16.482;2024-03-23T07:40:08;98980.03;;;11.40;100.00
35519;BME280;21627;48.216;16.482;2024-03-23T07:42:38;98966.88;;;11.52;100.00
35519;BME280;21627;48.216;16.482;2024-03-23T07:45:04;98974.47;;;11.63;100.00
35519;BME280;21627;48.216;16.482;2024-03-23T07:47:31;98976.09;;;11.68;100.00
35519;BME280;21627;48.216;16.482;2024-03-23T07:49:57;98964.09;;;11.63;100.00
35519;BME280;21627;48.216;16.482;2024-03-23T07:52:23;98961.53;;;11.61;100.00
35519;BME280;21627;48.216;16.482;2024-03-23T07:54:49;98966.91;;;11.51;100.00
35519;BME280;21627;48.216;16.482;2024-03-23T07:57:16;98960.59;;;11.67;100.00
35519;BME280;21627;48.216;16.482;2024-03-23T07:59:42;98963.34;;;11.56;100.00
35519;BME280;21627;48.216;16.482;2024-03-23T08:02:08;98963.91;;;11.75;100.00
35519;BME280;21627;48.216;16.482;2024-03-23T08:04:34;98954.06;;;11.96;100.00
35519;BME280;21627;48.216;16.482;2024-03-23T08:07:00;98963.00;;;12.24;100.00
35519;BME280;21627;48.216;16.482;2024-03-23T08:09:27;98952.88;;;12.55;100.00
35519;BME280;21627;48.216;16.482;2024-03-23T08:11:53;98952.50;;;12.72;96.69
35519;BME280;21627;48.216;16.482;2024-03-23T08:14:19;98934.63;;;12.99;96.53
35519;BME280;21627;48.216;16.482;2024-03-23T08:16:45;98931.41;;;13.25;100.00
35519;BME280;21627;48.216;16.482;2024-03-23T08:19:15;98912.47;;;13.59;95.13
35519;BME280;21627;48.216;16.482;2024-03-23T08:21:41;98902.31;;;13.82;98.11
35519;BME280;21627;48.216;16.482;2024-03-23T08:24:07;98898.56;;;13.93;99.08
35519;BME280;21627;48.216;16.482;2024-03-23T08:26:33;98892.56;;;14.22;95.47
35519;BME280;21627;48.216;16.482;2024-03-23T08:29:00;98889.44;;;14.39;94.28
35519;BME280;21627;48.216;16.482;2024-03-23T08:31:26;98877.81;;;14.52;94.86
35519;BME280;21627;48.216;16.482;2024-03-23T08:33:52;98880.16;;;14.89;91.08
35519;BME280;21627;48.216;16.482;2024-03-23T08:36:18;98883.47;;;14.95;92.04
35519;BME280;21627;48.216;16.482;2024-03-23T08:38:44;98881.25;;;15.09;90.95
35519;BME280;21627;48.216;16.482;2024-03-23T08:41:11;98876.41;;;15.25;91.16
35519;BME280;21627;48.216;16.482;2024-03-23T08:43:39;98876.63;;;15.44;86.79
35519;BME280;21627;48.216;16.482;2024-03-23T08:46:09;98869.78;;;15.66;83.39
35519;BME280;21627;48.216;16.482;2024-03-23T08:48:44;98859.06;;;15.75;70.99
35519;BME280;21627;48.216;16.482;2024-03-23T08:51:13;98842.25;;;15.84;68.65
35519;BME280;21627;48.216;16.482;2024-03-23T08:53:40;98847.81;;;16.22;68.12
35519;BME280;21627;48.216;16.482;2024-03-23T08:56:08;98834.16;;;16.37;65.26
35519;BME280;21627;48.216;16.482;2024-03-23T08:58:35;98840.34;;;16.58;65.41
35519;BME280;21627;48.216;16.482;2024-03-23T09:01:11;98842.47;;;16.71;57.26
35519;BME280;21627;48.216;16.482;2024-03-23T09:03:39;98832.34;;;16.85;58.18
35519;BME280;21627;48.216;16.482;2024-03-23T09:06:10;98824.22;;;17.13;57.11
35519;BME280;21627;48.216;16.482;2024-03-23T09:08:37;98817.63;;;17.25;57.30
35519;BME280;21627;48.216;16.482;2024-03-23T09:11:08;98809.81;;;17.25;55.77
35519;BME280;21627;48.216;16.482;2024-03-23T09:13:36;98801.91;;;17.47;57.94
35519;BME280;21627;48.216;16.482;2024-03-23T09:16:03;98801.34;;;17.80;57.38
35519;BME280;21627;48.216;16.482;2024-03-23T09:18:35;98776.63;;;17.87;55.08
35519;BME280;21627;48.216;16.482;2024-03-23T09:21:12;98774.59;;;18.12;55.36
35519;BME280;21627;48.216;16.482;2024-03-23T09:23:44;98777.47;;;18.25;55.37
35519;BME280;21627;48.216;16.482;2024-03-23T09:26:10;98776.81;;;18.39;57.95
35519;BME280;21627;48.216;16.482;2024-03-23T09:28:37;98765.78;;;18.69;57.83
35519;BME280;21627;48.216;16.482;2024-03-23T09:31:07;98761.97;;;18.76;54.20
35519;BME280;21627;48.216;16.482;2024-03-23T09:33:35;98766.28;;;19.12;54.03
35519;BME280;21627;48.216;16.482;2024-03-23T09:36:06;98746.09;;;19.31;54.00
35519;BME280;21627;48.216;16.482;2024-03-23T09:38:33;98742.00;;;19.76;51.54
35519;BME280;21627;48.216;16.482;2024-03-23T09:40:59;98733.63;;;20.01;51.18
35519;BME280;21627;48.216;16.482;2024-03-23T09:43:25;98737.59;;;20.24;51.86
35519;BME280;21627;48.216;16.482;2024-03-23T09:45:53;98735.97;;;20.38;50.58
35519;BME280;21627;48.216;16.482;2024-03-23T09:48:19;98722.84;;;20.38;49.71
35519;BME280;21627;48.216;16.482;2024-03-23T09:50:46;98724.06;;;20.16;49.25
35519;BME280;21627;48.216;16.482;2024-03-23T09:53:13;98717.69;;;20.20;45.74
35519;BME280;21627;48.216;16.482;2024-03-23T09:55:41;98706.66;;;20.45;46.38
35519;BME280;21627;48.216;16.482;2024-03-23T09:58:14;98702.00;;;20.66;51.03
35519;BME280;21627;48.216;16.482;2024-03-23T10:00:40;98701.56;;;20.88;51.17
35519;BME280;21627;48.216;16.482;2024-03-23T10:03:06;98692.84;;;20.88;51.51
35519;BME280;21627;48.216;16.482;2024-03-23T10:05:33;98683.69;;;21.09;51.67
35519;BME280;21627;48.216;16.482;2024-03-23T10:10:45;98670.63;;;21.08;48.44
35519;BME280;21627;48.216;16.482;2024-03-23T10:13:23;98658.88;;;21.13;51.85
35519;BME280;21627;48.216;16.482;2024-03-23T10:15:58;98654.31;;;21.17;47.33
35519;BME280;21627;48.216;16.482;2024-03-23T10:18:26;98663.38;;;21.11;48.93
35519;BME280;21627;48.216;16.482;2024-03-23T10:21:14;98647.16;;;21.19;48.84
35519;BME280;21627;48.216;16.482;2024-03-23T10:23:44;98642.19;;;21.43;49.89
35519;BME280;21627;48.216;16.482;2024-03-23T10:26:22;98646.69;;;21.55;50.56
35519;BME280;21627;48.216;16.482;2024-03-23T10:29:00;98644.59;;;21.75;47.39
35519;BME280;21627;48.216;16.482;2024-03-23T10:31:34;98646.63;;;21.84;46.78
35519;BME280;21627;48.216;16.482;2024-03-23T10:34:04;98633.72;;;21.94;45.64
35519;BME280;21627;48.216;16.482;2024-03-23T10:36:30;98632.63;;;21.83;46.39
35519;BME280;21627;48.216;16.482;2024-03-23T10:38:57;98632.31;;;21.61;45.33
35519;BME280;21627;48.216;16.482;2024-03-23T10:41:31;98616.88;;;21.96;45.36
35519;BME280;21627;48.216;16.482;2024-03-23T10:43:58;98611.53;;;22.25;41.24
35519;BME280;21627;48.216;16.482;2024-03-23T10:46:31;98614.13;;;22.65;42.61
35519;BME280;21627;48.216;16.482;2024-03-23T10:48:57;98596.94;;;22.72;39.02
35519;BME280;21627;48.216;16.482;2024-03-23T10:51:23;98591.06;;;22.81;40.08
35519;BME280;21627;48.216;16.482;2024-03-23T10:53:50;98588.94;;;22.48;39.40
35519;BME280;21627;48.216;16.482;2024-03-23T10:56:17;98584.00;;;22.56;39.75
35519;BME280;21627;48.216;16.482;2024-03-23T10:58:48;98592.84;;;23.19;38.96
35519;BME280;21627;48.216;16.482;2024-03-23T11:01:15;98587.75;;;23.66;40.50
35519;BME280;21627;48.216;16.482;2024-03-23T11:03:46;98572.97;;;23.76;36.10
35519;BME280;21627;48.216;16.482;2024-03-23T11:06:36;98582.34;;;23.80;37.76
35519;BME280;21627;48.216;16.482;2024-03-23T11:09:02;98572.47;;;23.95;35.71
35519;BME280;21627;48.216;16.482;2024-03-23T11:11:28;98571.34;;;24.22;36.86
35519;BME280;21627;48.216;16.482;2024-03-23T11:13:59;98571.75;;;24.28;35.22
35519;BME280;21627;48.216;16.482;2024-03-23T11:16:26;98567.72;;;24.11;36.09
35519;BME280;21627;48.216;16.482;2024-03-23T11:19:36;98561.63;;;23.87;35.89
35519;BME280;21627;48.216;16.482;2024-03-23T11:22:03;98555.16;;;24.26;38.14
35519;BME280;21627;48.216;16.482;2024-03-23T11:24:29;98556.22;;;24.59;37.05
35519;BME280;21627;48.216;16.482;2024-03-23T11:26:55;98544.59;;;24.26;34.29
35519;BME280;21627;48.216;16.482;2024-03-23T11:29:21;98547.38;;;23.89;36.18
35519;BME280;21627;48.216;16.482;2024-03-23T11:31:49;98552.00;;;24.10;36.17
35519;BME280;21627;48.216;16.482;2024-03-23T11:34:16;98553.38;;;23.91;39.11
35519;BME280;21627;48.216;16.482;2024-03-23T11:36:43;98552.00;;;23.62;38.93
35519;BME280;21627;48.216;16.482;2024-03-23T11:39:17;98545.28;;;22.95;38.72
35519;BME280;21627;48.216;16.482;2024-03-23T11:41:52;98538.75;;;22.75;42.26
35519;BME280;21627;48.216;16.482;2024-03-23T11:44:24;98547.72;;;22.73;43.19
35519;BME280;21627;48.216;16.482;2024-03-23T11:46:51;98539.28;;;22.42;42.83
35519;BME280;21627;48.216;16.482;2024-03-23T11:49:24;98545.03;;;21.81;41.98
35519;BME280;21627;48.216;16.482;2024-03-23T11:51:53;98543.03;;;21.45;43.48
35519;BME280;21627;48.216;16.482;2024-03-23T11:54:26;98541.88;;;21.35;44.01
35519;BME280;21627;48.216;16.482;2024-03-23T11:57:00;98530.38;;;21.09;44.96
35519;BME280;21627;48.216;16.482;2024-03-23T11:59:41;98534.53;;;20.70;44.67
35519;BME280;21627;48.216;16.482;2024-03-23T12:02:08;98538.88;;;20.26;45.91
35519;BME280;21627;48.216;16.482;2024-03-23T12:04:36;98533.63;;;20.41;45.14
35519;BME280;21627;48.216;16.482;2024-03-23T12:07:17;98534.97;;;20.03;46.96
35519;BME280;21627;48.216;16.482;2024-03-23T12:10:05;98531.28;;;20.22;47.19
35519;BME280;21627;48.216;16.482;2024-03-23T12:12:34;98533.66;;;20.10;49.86
35519;BME280;21627;48.216;16.482;2024-03-23T12:15:07;98525.19;;;19.91;50.06
35519;BME280;21627;48.216;16.482;2024-03-23T12:17:35;98534.41;;;19.98;51.21
35519;BME280;21627;48.216;16.482;2024-03-23T12:20:02;98535.44;;;19.80;51.09
35519;BME280;21627;48.216;16.482;2024-03-23T12:22:28;98530.97;;;19.66;52.42
35519;BME280;21627;48.216;16.482;2024-03-23T12:24:56;98533.91;;;19.60;51.31
35519;BME280;21627;48.216;16.482;2024-03-23T12:27:22;98514.06;;;19.56;52.39
35519;BME280;21627;48.216;16.482;2024-03-23T12:29:52;98502.75;;;19.39;54.76
35519;BME280;21627;48.216;16.482;2024-03-23T12:32:18;98511.81;;;19.18;54.83
35519;BME280;21627;48.216;16.482;2024-03-23T12:34:44;98496.75;;;19.21;55.20
35519;BME280;21627;48.216;16.482;2024-03-23T12:37:10;98494.31;;;19.02;56.07
35519;BME280;21627;48.216;16.482;2024-03-23T12:39:38;98489.88;;;18.87;57.10
35519;BME280;21627;48.216;16.482;2024-03-23T12:42:04;98496.94;;;18.69;71.85
35519;BME280;21627;48.216;16.482;2024-03-23T12:44:31;98481.19;;;18.20;95.89
35519;BME280;21627;48.216;16.482;2024-03-23T12:46:57;98482.38;;;17.80;97.57
35519;BME280;21627;48.216;16.482;2024-03-23T12:49:23;98490.88;;;17.29;100.00
35519;BME280;21627;48.216;16.482;2024-03-23T12:51:56;98530.84;;;16.94;100.00
35519;BME280;21627;48.216;16.482;2024-03-23T12:54:23;98536.09;;;16.73;91.10
35519;BME280;21627;48.216;16.482;2024-03-23T12:56:50;98528.50;;;16.48;97.99
35519;BME280;21627;48.216;16.482;2024-03-23T12:59:16;98551.38;;;16.00;100.00
35519;BME280;21627;48.216;16.482;2024-03-23T13:01:45;98559.50;;;15.49;100.00
35519;BME280;21627;48.216;16.482;2024-03-23T13:04:11;98583.59;;;15.08;100.00
35519;BME280;21627;48.216;16.482;2024-03-23T13:06:37;98631.28;;;14.85;100.00
35519;BME280;21627;48.216;16.482;2024-03-23T13:09:04;98655.00;;;14.78;100.00
35519;BME280;21627;48.216;16.482;2024-03-23T13:11:31;98667.41;;;14.69;100.00
35519;BME280;21627;48.216;16.482;2024-03-23T13:13:57;98704.56;;;14.73;100.00
35519;BME280;21627;48.216;16.482;2024-03-23T13:16:23;98754.41;;;14.61;100.00
35519;BME280;21627;48.216;16.482;2024-03-23T13:18:50;98770.47;;;14.45;100.00
35519;BME280;21627;48.216;16.482;2024-03-23T13:21:16;98788.81;;;14.13;100.00
35519;BME280;21627;48.216;16.482;2024-03-23T13:23:45;98806.63;;;13.97;100.00
35519;BME280;21627;48.216;16.482;2024-03-23T13:26:13;98802.69;;;13.83;100.00
35519;BME280;21627;48.216;16.482;2024-03-23T13:28:40;98799.00;;;13.59;100.00
35519;BME280;21627;48.216;16.482;2024-03-23T13:31:07;98821.88;;;13.47;100.00
35519;BME280;21627;48.216;16.482;2024-03-23T13:33:34;98809.00;;;13.08;100.00
35519;BME280;21627;48.216;16.482;2024-03-23T13:36:00;98819.50;;;13.03;100.00
35519;BME280;21627;48.216;16.482;2024-03-23T13:38:27;98842.50;;;12.83;100.00
35519;BME280;21627;48.216;16.482;2024-03-23T13:40:56;98840.84;;;12.78;100.00
35519;BME280;21627;48.216;16.482;2024-03-23T13:43:24;98841.16;;;12.65;100.00